sensor_id;sensor_type;location;lat;lon;timestamp;temperature;humidity
14682;DHT22;7429;52.498;13.480;2023-03-01T00:00:40;-1.20;99.90
14682;DHT22;7429;52.498;13.480;2023-03-01T00:03:48;-1.30;99.90
14682;DHT22;7429;52.498;13.480;2023-03-01T00:06:52;-1.40;99.90
14682;DHT22;7429;52.498;13.480;2023-03-01T00:09:57;-1.50;99.90
14682;DHT22;7429;52.498;13.480;2023-03-01T00:13:00;-1.50;99.90
14682;DHT22;7429;52.498;13.480;2023-03-01T00:16:03;-1.50;99.90
14682;DHT22;7429;52.498;13.480;2023-03-01T00:19:08;-1.50;99.90
14682;DHT22;7429;52.498;13.480;2023-03-01T00:22:13;-1.50;99.90
14682;DHT22;7429;52.498;13.480;2023-03-01T00:25:17;-1.50;99.90
14682;DHT22;7429;52.498;13.480;2023-03-01T00:28:20;-1.50;99.90
14682;DHT22;7429;52.498;13.480;2023-03-01T00:31:25;-1.60;99.90
14682;DHT22;7429;52.498;13.480;2023-03-01T00:34:30;-1.50;99.90
14682;DHT22;7429;52.498;13.480;2023-03-01T00:37:34;-1.60;99.90
14682;DHT22;7429;52.498;13.480;2023-03-01T00:40:38;-1.70;99.90
14682;DHT22;7429;52.498;13.480;2023-03-01T00:43:42;-1.70;99.90
14682;DHT22;7429;52.498;13.480;2023-03-01T00:46:45;-1.70;99.90
14682;DHT22;7429;52.498;13.480;2023-03-01T00:49:48;-1.70;99.90
14682;DHT22;7429;52.498;13.480;2023-03-01T00:52:52;-1.70;99.90
14682;DHT22;7429;52.498;13.480;2023-03-01T00:55:58;-1.80;99.90
14682;DHT22;7429;52.498;13.480;2023-03-01T00:59:01;-1.80;99.90
14682;DHT22;7429;52.498;13.480;2023-03-01T01:02:04;-1.80;99.90
14682;DHT22;7429;52.498;13.480;2023-03-01T01:05:08;-1.80;99.90
14682;DHT22;7429;52.498;13.480;2023-03-01T01:08:12;-1.80;99.90
14682;DHT22;7429;52.498;13.480;2023-03-01T01:11:16;-1.80;99.90
14682;DHT22;7429;52.498;13.480;2023-03-01T01:14:20;-1.80;99.90
14682;DHT22;7429;52.498;13.480;2023-03-01T01:17:23;-1.80;99.90
14682;DHT22;7429;52.498;13.480;2023-03-01T01:20:26;-1.90;99.90
14682;DHT22;7429;52.498;13.480;2023-03-01T01:23:30;-1.90;99.90
14682;DHT22;7429;52.498;13.480;2023-03-01T01:26:34;-1.90;99.90
14682;DHT22;7429;52.498;13.480;2023-03-01T01:29:37;-2.00;99.90
14682;DHT22;7429;52.498;13.480;2023-03-01T01:32:40;-2.00;99.90
14682;DHT22;7429;52.498;13.480;2023-03-01T01:35:45;-2.00;99.90
14682;DHT22;7429;52.498;13.480;2023-03-01T01:38:49;-2.00;99.90
14682;DHT22;7429;52.498;13.480;2023-03-01T01:41:55;-2.00;99.90
14682;DHT22;7429;52.498;13.480;2023-03-01T01:45:25;-2.00;99.90
14682;DHT22;7429;52.498;13.480;2023-03-01T01:48:37;-2.10;99.90
14682;DHT22;7429;52.498;13.480;2023-03-01T01:51:45;-2.10;99.90
14682;DHT22;7429;52.498;13.480;2023-03-01T01:54:52;-2.10;99.90
14682;DHT22;7429;52.498;13.480;2023-03-01T01:58:01;-2.20;99.90
14682;DHT22;7429;52.498;13.480;2023-03-01T02:01:06;-2.10;99.90
14682;DHT22;7429;52.498;13.480;2023-03-01T02:04:09;-2.20;99.90
14682;DHT22;7429;52.498;13.480;2023-03-01T02:07:15;-2.10;99.90
14682;DHT22;7429;52.498;13.480;2023-03-01T02:10:19;-2.20;99.90
14682;DHT22;7429;52.498;13.480;2023-03-01T02:13:25;-2.20;99.90
14682;DHT22;7429;52.498;13.480;2023-03-01T02:16:29;-2.20;99.90
14682;DHT22;7429;52.498;13.480;2023-03-01T02:19:43;-2.20;99.90
14682;DHT22;7429;52.498;13.480;2023-03-01T02:22:53;-2.30;99.90
14682;DHT22;7429;52.498;13.480;2023-03-01T02:26:01;-2.30;99.90
14682;DHT22;7429;52.498;13.480;2023-03-01T02:29:10;-2.30;99.90
14682;DHT22;7429;52.498;13.480;2023-03-01T02:32:14;-2.30;99.90
14682;DHT22;7429;52.498;13.480;2023-03-01T02:35:18;-2.30;99.90
14682;DHT22;7429;52.498;13.480;2023-03-01T02:38:23;-2.40;99.90
14682;DHT22;7429;52.498;13.480;2023-03-01T02:41:28;-2.40;99.90
14682;DHT22;7429;52.498;13.480;2023-03-01T02:44:35;-2.40;99.90
14682;DHT22;7429;52.498;13.480;2023-03-01T02:47:38;-2.40;99.90
14682;DHT22;7429;52.498;13.480;2023-03-01T02:50:57;-2.40;99.90
14682;DHT22;7429;52.498;13.480;2023-03-01T02:54:12;-2.40;99.90
14682;DHT22;7429;52.498;13.480;2023-03-01T02:57:22;-2.40;99.90
14682;DHT22;7429;52.498;13.480;2023-03-01T03:00:31;-2.40;99.90
14682;DHT22;7429;52.498;13.480;2023-03-01T03:03:38;-2.50;99.90
14682;DHT22;7429;52.498;13.480;2023-03-01T03:06:41;-2.50;99.90
14682;DHT22;7429;52.498;13.480;2023-03-01T03:09:45;-2.60;99.90
14682;DHT22;7429;52.498;13.480;2023-03-01T03:12:52;-2.50;99.90
14682;DHT22;7429;52.498;13.480;2023-03-01T03:15:58;-2.60;99.90
14682;DHT22;7429;52.498;13.480;2023-03-01T03:19:01;-2.60;99.90
14682;DHT22;7429;52.498;13.480;2023-03-01T03:22:07;-2.60;99.90
14682;DHT22;7429;52.498;13.480;2023-03-01T03:25:10;-2.60;99.90
14682;DHT22;7429;52.498;13.480;2023-03-01T03:28:14;-2.60;99.90
14682;DHT22;7429;52.498;13.480;2023-03-01T03:31:19;-2.70;99.90
14682;DHT22;7429;52.498;13.480;2023-03-01T03:34:22;-2.70;99.90
14682;DHT22;7429;52.498;13.480;2023-03-01T03:37:25;-2.70;99.90
14682;DHT22;7429;52.498;13.480;2023-03-01T03:40:47;-2.80;99.90
14682;DHT22;7429;52.498;13.480;2023-03-01T03:43:51;-2.80;99.90
14682;DHT22;7429;52.498;13.480;2023-03-01T03:46:56;-2.70;99.90
14682;DHT22;7429;52.498;13.480;2023-03-01T03:49:59;-2.70;99.90
14682;DHT22;7429;52.498;13.480;2023-03-01T03:53:05;-2.80;99.90
14682;DHT22;7429;52.498;13.480;2023-03-01T03:56:09;-2.80;99.90
14682;DHT22;7429;52.498;13.480;2023-03-01T03:59:13;-2.80;99.90
14682;DHT22;7429;52.498;13.480;2023-03-01T04:02:17;-2.80;99.90
14682;DHT22;7429;52.498;13.480;2023-03-01T04:05:24;-2.90;99.90
14682;DHT22;7429;52.498;13.480;2023-03-01T04:08:28;-2.90;99.90
14682;DHT22;7429;52.498;13.480;2023-03-01T04:11:31;-2.90;99.90
14682;DHT22;7429;52.498;13.480;2023-03-01T04:14:36;-2.90;99.90
14682;DHT22;7429;52.498;13.480;2023-03-01T04:17:41;-2.90;99.90
14682;DHT22;7429;52.498;13.480;2023-03-01T04:20:46;-3.00;99.90
14682;DHT22;7429;52.498;13.480;2023-03-01T04:23:53;-3.00;99.90
14682;DHT22;7429;52.498;13.480;2023-03-01T04:26:56;-3.00;99.90
14682;DHT22;7429;52.498;13.480;2023-03-01T04:29:59;-3.10;99.90
14682;DHT22;7429;52.498;13.480;2023-03-01T04:33:05;-3.10;99.90
14682;DHT22;7429;52.498;13.480;2023-03-01T04:36:10;-3.10;99.90
14682;DHT22;7429;52.498;13.480;2023-03-01T04:39:13;-3.10;99.90
14682;DHT22;7429;52.498;13.480;2023-03-01T04:42:17;-3.10;99.90
14682;DHT22;7429;52.498;13.480;2023-03-01T04:45:21;-3.20;99.90
14682;DHT22;7429;52.498;13.480;2023-03-01T04:48:25;-3.20;99.90
14682;DHT22;7429;52.498;13.480;2023-03-01T04:51:28;-3.20;99.90
14682;DHT22;7429;52.498;13.480;2023-03-01T04:54:34;-3.20;99.90
14682;DHT22;7429;52.498;13.480;2023-03-01T04:57:38;-3.20;99.90
14682;DHT22;7429;52.498;13.480;2023-03-01T05:00:41;-3.10;99.90
14682;DHT22;7429;52.498;13.480;2023-03-01T05:03:47;-3.10;99.90
14682;DHT22;7429;52.498;13.480;2023-03-01T05:06:51;-3.10;99.90
14682;DHT22;7429;52.498;13.480;2023-03-01T05:09:55;-3.20;99.90
14682;DHT22;7429;52.498;13.480;2023-03-01T05:12:59;-3.20;99.90
14682;DHT22;7429;52.498;13.480;2023-03-01T05:16:03;-3.20;99.90
14682;DHT22;7429;52.498;13.480;2023-03-01T05:19:09;-3.20;99.90
14682;DHT22;7429;52.498;13.480;2023-03-01T05:22:17;-3.20;99.90
14682;DHT22;7429;52.498;13.480;2023-03-01T05:25:21;-3.20;99.90
14682;DHT22;7429;52.498;13.480;2023-03-01T05:28:24;-3.30;99.90
14682;DHT22;7429;52.498;13.480;2023-03-01T05:31:28;-3.30;99.90
14682;DHT22;7429;52.498;13.480;2023-03-01T05:34:36;-3.30;99.90
14682;DHT22;7429;52.498;13.480;2023-03-01T05:37:41;-3.30;99.90
14682;DHT22;7429;52.498;13.480;2023-03-01T05:40:46;-3.30;99.90
14682;DHT22;7429;52.498;13.480;2023-03-01T05:43:50;-3.30;99.90
14682;DHT22;7429;52.498;13.480;2023-03-01T05:46:53;-3.30;99.90
14682;DHT22;7429;52.498;13.480;2023-03-01T05:49:58;-3.30;99.90
14682;DHT22;7429;52.498;13.480;2023-03-01T05:53:03;-3.40;99.90
14682;DHT22;7429;52.498;13.480;2023-03-01T05:56:09;-3.40;99.90
14682;DHT22;7429;52.498;13.480;2023-03-01T05:59:12;-3.40;99.90
14682;DHT22;7429;52.498;13.480;2023-03-01T06:02:18;-3.40;99.90
14682;DHT22;7429;52.498;13.480;2023-03-01T06:05:23;-3.30;99.90
14682;DHT22;7429;52.498;13.480;2023-03-01T06:08:26;-3.30;99.90
14682;DHT22;7429;52.498;13.480;2023-03-01T06:11:29;-3.30;99.90
14682;DHT22;7429;52.498;13.480;2023-03-01T06:14:32;-3.30;99.90
14682;DHT22;7429;52.498;13.480;2023-03-01T06:17:37;-3.30;99.90
14682;DHT22;7429;52.498;13.480;2023-03-01T06:20:43;-3.30;99.90
14682;DHT22;7429;52.498;13.480;2023-03-01T06:23:46;-3.30;99.90
14682;DHT22;7429;52.498;13.480;2023-03-01T06:26:50;-3.30;99.90
14682;DHT22;7429;52.498;13.480;2023-03-01T06:29:53;-3.20;99.90
14682;DHT22;7429;52.498;13.480;2023-03-01T06:32:56;-3.20;99.90
14682;DHT22;7429;52.498;13.480;2023-03-01T06:36:05;-3.20;99.90
14682;DHT22;7429;52.498;13.480;2023-03-01T06:39:09;-3.10;99.90
14682;DHT22;7429;52.498;13.480;2023-03-01T06:42:12;-3.10;99.90
14682;DHT22;7429;52.498;13.480;2023-03-01T06:45:16;-3.00;99.90
14682;DHT22;7429;52.498;13.480;2023-03-01T06:48:20;-3.00;99.90
14682;DHT22;7429;52.498;13.480;2023-03-01T06:51:25;-3.00;99.90
14682;DHT22;7429;52.498;13.480;2023-03-01T06:54:28;-2.90;99.90
14682;DHT22;7429;52.498;13.480;2023-03-01T06:57:31;-2.80;99.90
14682;DHT22;7429;52.498;13.480;2023-03-01T07:00:35;-2.90;99.90
14682;DHT22;7429;52.498;13.480;2023-03-01T07:03:38;-2.80;99.90
14682;DHT22;7429;52.498;13.480;2023-03-01T07:06:42;-2.70;99.90
14682;DHT22;7429;52.498;13.480;2023-03-01T07:09:45;-2.60;99.90
14682;DHT22;7429;52.498;13.480;2023-03-01T07:12:48;-2.60;99.90
14682;DHT22;7429;52.498;13.480;2023-03-01T07:15:51;-2.50;99.90
14682;DHT22;7429;52.498;13.480;2023-03-01T07:18:54;-2.40;99.90
14682;DHT22;7429;52.498;13.480;2023-03-01T07:22:02;-2.30;99.90
14682;DHT22;7429;52.498;13.480;2023-03-01T07:25:07;-2.20;99.90
14682;DHT22;7429;52.498;13.480;2023-03-01T07:28:10;-2.10;99.90
14682;DHT22;7429;52.498;13.480;2023-03-01T07:31:13;-2.00;99.90
14682;DHT22;7429;52.498;13.480;2023-03-01T07:34:16;-1.90;99.90
14682;DHT22;7429;52.498;13.480;2023-03-01T07:37:21;-1.80;99.90
14682;DHT22;7429;52.498;13.480;2023-03-01T07:40:24;-1.60;99.90
14682;DHT22;7429;52.498;13.480;2023-03-01T07:43:27;-1.60;99.90
14682;DHT22;7429;52.498;13.480;2023-03-01T07:46:31;-1.50;99.90
14682;DHT22;7429;52.498;13.480;2023-03-01T07:49:35;-1.30;99.90
14682;DHT22;7429;52.498;13.480;2023-03-01T07:52:39;-1.30;99.90
14682;DHT22;7429;52.498;13.480;2023-03-01T07:55:42;-1.20;99.90
14682;DHT22;7429;52.498;13.480;2023-03-01T07:58:45;-1.00;99.90
14682;DHT22;7429;52.498;13.480;2023-03-01T08:01:51;-0.90;99.90
14682;DHT22;7429;52.498;13.480;2023-03-01T08:04:55;-0.80;99.90
14682;DHT22;7429;52.498;13.480;2023-03-01T08:07:59;-0.70;99.90
14682;DHT22;7429;52.498;13.480;2023-03-01T08:11:04;-0.50;99.90
14682;DHT22;7429;52.498;13.480;2023-03-01T08:14:08;-0.40;99.90
14682;DHT22;7429;52.498;13.480;2023-03-01T08:17:13;-0.20;99.90
14682;DHT22;7429;52.498;13.480;2023-03-01T08:20:17;-0.10;99.90
14682;DHT22;7429;52.498;13.480;2023-03-01T08:23:22;0.10;99.90
14682;DHT22;7429;52.498;13.480;2023-03-01T08:26:25;0.30;99.90
14682;DHT22;7429;52.498;13.480;2023-03-01T08:29:30;0.40;99.90
14682;DHT22;7429;52.498;13.480;2023-03-01T08:32:36;0.50;99.90
14682;DHT22;7429;52.498;13.480;2023-03-01T08:35:40;0.60;99.90
14682;DHT22;7429;52.498;13.480;2023-03-01T08:38:44;0.80;99.90
14682;DHT22;7429;52.498;13.480;2023-03-01T08:41:48;0.90;99.90
14682;DHT22;7429;52.498;13.480;2023-03-01T08:44:51;1.10;99.90
14682;DHT22;7429;52.498;13.480;2023-03-01T08:47:54;1.20;99.90
14682;DHT22;7429;52.498;13.480;2023-03-01T08:50:59;1.30;99.90
14682;DHT22;7429;52.498;13.480;2023-03-01T08:54:12;1.50;99.90
14682;DHT22;7429;52.498;13.480;2023-03-01T08:57:16;1.60;99.90
14682;DHT22;7429;52.498;13.480;2023-03-01T09:00:20;1.70;99.90
14682;DHT22;7429;52.498;13.480;2023-03-01T09:03:25;1.80;99.90
14682;DHT22;7429;52.498;13.480;2023-03-01T09:06:30;2.00;99.90
14682;DHT22;7429;52.498;13.480;2023-03-01T09:09:36;2.10;99.90
14682;DHT22;7429;52.498;13.480;2023-03-01T09:12:40;2.20;99.90
14682;DHT22;7429;52.498;13.480;2023-03-01T09:15:43;2.30;99.90
14682;DHT22;7429;52.498;13.480;2023-03-01T09:18:49;2.40;99.90
14682;DHT22;7429;52.498;13.480;2023-03-01T09:21:53;2.50;99.90
14682;DHT22;7429;52.498;13.480;2023-03-01T09:24:58;2.60;99.90
14682;DHT22;7429;52.498;13.480;2023-03-01T09:28:01;2.80;99.90
14682;DHT22;7429;52.498;13.480;2023-03-01T09:31:05;2.80;99.90
14682;DHT22;7429;52.498;13.480;2023-03-01T09:34:08;2.90;99.90
14682;DHT22;7429;52.498;13.480;2023-03-01T09:37:12;3.00;99.90
14682;DHT22;7429;52.498;13.480;2023-03-01T09:40:21;3.20;99.90
14682;DHT22;7429;52.498;13.480;2023-03-01T09:43:31;3.40;99.90
14682;DHT22;7429;52.498;13.480;2023-03-01T09:46:43;3.40;99.90
14682;DHT22;7429;52.498;13.480;2023-03-01T09:49:53;3.70;99.90
14682;DHT22;7429;52.498;13.480;2023-03-01T09:53:02;3.80;99.90
14682;DHT22;7429;52.498;13.480;2023-03-01T09:56:13;3.90;99.90
14682;DHT22;7429;52.498;13.480;2023-03-01T09:59:26;4.20;99.90
14682;DHT22;7429;52.498;13.480;2023-03-01T10:02:39;4.40;99.90
14682;DHT22;7429;52.498;13.480;2023-03-01T10:05:52;4.50;99.90
14682;DHT22;7429;52.498;13.480;2023-03-01T10:09:05;4.90;99.90
14682;DHT22;7429;52.498;13.480;2023-03-01T10:12:18;5.20;99.90
14682;DHT22;7429;52.498;13.480;2023-03-01T10:15:30;5.50;99.90
14682;DHT22;7429;52.498;13.480;2023-03-01T10:18:40;5.50;99.90
14682;DHT22;7429;52.498;13.480;2023-03-01T10:21:45;5.50;99.90
14682;DHT22;7429;52.498;13.480;2023-03-01T10:24:50;5.60;99.90
14682;DHT22;7429;52.498;13.480;2023-03-01T10:28:01;5.70;99.90
14682;DHT22;7429;52.498;13.480;2023-03-01T10:31:09;5.90;99.90
14682;DHT22;7429;52.498;13.480;2023-03-01T10:34:17;6.00;99.90
14682;DHT22;7429;52.498;13.480;2023-03-01T10:37:21;6.20;99.90
14682;DHT22;7429;52.498;13.480;2023-03-01T10:40:26;6.50;99.90
14682;DHT22;7429;52.498;13.480;2023-03-01T10:43:43;6.50;99.90
14682;DHT22;7429;52.498;13.480;2023-03-01T10:46:59;6.60;99.90
14682;DHT22;7429;52.498;13.480;2023-03-01T10:50:05;6.80;99.90
14682;DHT22;7429;52.498;13.480;2023-03-01T10:53:26;7.00;99.90
14682;DHT22;7429;52.498;13.480;2023-03-01T10:56:46;6.90;99.90
14682;DHT22;7429;52.498;13.480;2023-03-01T11:00:09;6.90;99.90
14682;DHT22;7429;52.498;13.480;2023-03-01T11:03:25;7.10;99.90
14682;DHT22;7429;52.498;13.480;2023-03-01T11:06:29;7.10;99.90
14682;DHT22;7429;52.498;13.480;2023-03-01T11:09:33;7.30;99.90
14682;DHT22;7429;52.498;13.480;2023-03-01T11:12:39;7.40;99.90
14682;DHT22;7429;52.498;13.480;2023-03-01T11:15:58;7.70;99.90
14682;DHT22;7429;52.498;13.480;2023-03-01T11:19:18;8.00;99.90
14682;DHT22;7429;52.498;13.480;2023-03-01T11:22:22;8.20;99.90
14682;DHT22;7429;52.498;13.480;2023-03-01T11:25:27;8.10;99.90
14682;DHT22;7429;52.498;13.480;2023-03-01T11:28:38;8.30;99.90
14682;DHT22;7429;52.498;13.480;2023-03-01T11:31:45;8.50;99.90
14682;DHT22;7429;52.498;13.480;2023-03-01T11:35:03;8.60;99.90
14682;DHT22;7429;52.498;13.480;2023-03-01T11:38:19;8.70;99.90
14682;DHT22;7429;52.498;13.480;2023-03-01T11:41:27;8.90;99.90
14682;DHT22;7429;52.498;13.480;2023-03-01T11:44:35;9.10;99.90
14682;DHT22;7429;52.498;13.480;2023-03-01T11:47:56;9.10;99.90
14682;DHT22;7429;52.498;13.480;2023-03-01T11:51:19;9.00;99.90
14682;DHT22;7429;52.498;13.480;2023-03-01T11:54:34;9.00;99.90
14682;DHT22;7429;52.498;13.480;2023-03-01T11:58:04;9.00;99.90
14682;DHT22;7429;52.498;13.480;2023-03-01T12:01:25;9.30;99.90
14682;DHT22;7429;52.498;13.480;2023-03-01T12:08:33;9.80;99.90
14682;DHT22;7429;52.498;13.480;2023-03-01T12:11:51;9.70;99.90
14682;DHT22;7429;52.498;13.480;2023-03-01T12:19:02;9.40;99.90
14682;DHT22;7429;52.498;13.480;2023-03-01T12:22:24;9.70;99.90
14682;DHT22;7429;52.498;13.480;2023-03-01T12:25:34;9.80;99.90
14682;DHT22;7429;52.498;13.480;2023-03-01T12:29:02;9.90;99.90
14682;DHT22;7429;52.498;13.480;2023-03-01T12:32:22;10.10;99.90
14682;DHT22;7429;52.498;13.480;2023-03-01T12:36:06;10.30;99.90
14682;DHT22;7429;52.498;13.480;2023-03-01T12:39:44;10.60;99.90
14682;DHT22;7429;52.498;13.480;2023-03-01T12:43:05;10.70;99.90
14682;DHT22;7429;52.498;13.480;2023-03-01T12:46:25;10.60;99.90
14682;DHT22;7429;52.498;13.480;2023-03-01T12:49:38;10.20;99.90
14682;DHT22;7429;52.498;13.480;2023-03-01T12:52:46;10.30;99.90
14682;DHT22;7429;52.498;13.480;2023-03-01T12:55:55;10.20;99.90
14682;DHT22;7429;52.498;13.480;2023-03-01T12:59:08;10.10;99.90
14682;DHT22;7429;52.498;13.480;2023-03-01T13:02:21;10.20;99.90
14682;DHT22;7429;52.498;13.480;2023-03-01T13:05:34;10.40;99.90
14682;DHT22;7429;52.498;13.480;2023-03-01T13:08:46;10.40;99.90
14682;DHT22;7429;52.498;13.480;2023-03-01T13:11:53;10.40;99.90
14682;DHT22;7429;52.498;13.480;2023-03-01T13:14:56;10.50;99.90
14682;DHT22;7429;52.498;13.480;2023-03-01T13:18:00;10.50;99.90
14682;DHT22;7429;52.498;13.480;2023-03-01T13:21:06;10.40;99.90
14682;DHT22;7429;52.498;13.480;2023-03-01T13:24:26;10.30;99.90
14682;DHT22;7429;52.498;13.480;2023-03-01T13:27:32;10.50;99.90
14682;DHT22;7429;52.498;13.480;2023-03-01T13:30:41;10.50;99.90
14682;DHT22;7429;52.498;13.480;2023-03-01T13:33:45;10.80;99.90
14682;DHT22;7429;52.498;13.480;2023-03-01T13:36:49;11.30;99.90
14682;DHT22;7429;52.498;13.480;2023-03-01T13:39:52;11.30;99.90
14682;DHT22;7429;52.498;13.480;2023-03-01T13:42:57;10.90;99.90
14682;DHT22;7429;52.498;13.480;2023-03-01T13:46:29;10.60;99.90
14682;DHT22;7429;52.498;13.480;2023-03-01T13:49:42;10.70;99.90
14682;DHT22;7429;52.498;13.480;2023-03-01T13:52:52;10.70;99.90
14682;DHT22;7429;52.498;13.480;2023-03-01T13:56:02;11.10;99.90
14682;DHT22;7429;52.498;13.480;2023-03-01T13:59:15;11.50;99.90
14682;DHT22;7429;52.498;13.480;2023-03-01T14:02:19;11.50;99.90
14682;DHT22;7429;52.498;13.480;2023-03-01T14:05:22;11.70;99.90
14682;DHT22;7429;52.498;13.480;2023-03-01T14:08:27;11.70;99.90
14682;DHT22;7429;52.498;13.480;2023-03-01T14:11:50;11.70;99.90
14682;DHT22;7429;52.498;13.480;2023-03-01T14:15:06;11.80;99.90
14682;DHT22;7429;52.498;13.480;2023-03-01T14:18:16;11.70;99.90
14682;DHT22;7429;52.498;13.480;2023-03-01T14:21:23;11.70;99.90
14682;DHT22;7429;52.498;13.480;2023-03-01T14:24:27;11.50;99.90
14682;DHT22;7429;52.498;13.480;2023-03-01T14:27:35;11.40;99.90
14682;DHT22;7429;52.498;13.480;2023-03-01T14:30:46;11.40;99.90
14682;DHT22;7429;52.498;13.480;2023-03-01T14:33:55;11.30;99.90
14682;DHT22;7429;52.498;13.480;2023-03-01T14:37:10;11.40;99.90
14682;DHT22;7429;52.498;13.480;2023-03-01T14:40:23;11.70;99.90
14682;DHT22;7429;52.498;13.480;2023-03-01T14:43:29;11.90;99.90
14682;DHT22;7429;52.498;13.480;2023-03-01T14:46:36;11.70;99.90
14682;DHT22;7429;52.498;13.480;2023-03-01T14:49:41;11.30;99.90
14682;DHT22;7429;52.498;13.480;2023-03-01T14:52:48;11.20;99.90
14682;DHT22;7429;52.498;13.480;2023-03-01T14:55:55;11.30;99.90
14682;DHT22;7429;52.498;13.480;2023-03-01T14:59:01;11.30;99.90
14682;DHT22;7429;52.498;13.480;2023-03-01T15:02:13;11.10;99.90
14682;DHT22;7429;52.498;13.480;2023-03-01T15:05:24;11.10;99.90
14682;DHT22;7429;52.498;13.480;2023-03-01T15:08:29;11.10;99.90
14682;DHT22;7429;52.498;13.480;2023-03-01T15:11:35;11.00;99.90
14682;DHT22;7429;52.498;13.480;2023-03-01T15:14:42;11.00;99.90
14682;DHT22;7429;52.498;13.480;2023-03-01T15:18:13;10.60;99.90
14682;DHT22;7429;52.498;13.480;2023-03-01T15:21:21;10.20;99.90
14682;DHT22;7429;52.498;13.480;2023-03-01T15:24:26;9.90;99.90
14682;DHT22;7429;52.498;13.480;2023-03-01T15:27:30;9.90;99.90
14682;DHT22;7429;52.498;13.480;2023-03-01T15:30:35;9.80;99.90
14682;DHT22;7429;52.498;13.480;2023-03-01T15:33:41;9.70;99.90
14682;DHT22;7429;52.498;13.480;2023-03-01T15:36:50;9.60;99.90
14682;DHT22;7429;52.498;13.480;2023-03-01T15:39:55;9.40;99.90
14682;DHT22;7429;52.498;13.480;2023-03-01T15:42:59;9.40;99.90
14682;DHT22;7429;52.498;13.480;2023-03-01T15:46:03;9.20;99.90
14682;DHT22;7429;52.498;13.480;2023-03-01T15:49:28;9.10;99.90
14682;DHT22;7429;52.498;13.480;2023-03-01T15:52:54;9.00;99.90
14682;DHT22;7429;52.498;13.480;2023-03-01T15:55:58;8.80;99.90
14682;DHT22;7429;52.498;13.480;2023-03-01T15:59:03;8.70;99.90
14682;DHT22;7429;52.498;13.480;2023-03-01T16:02:09;8.70;99.90
14682;DHT22;7429;52.498;13.480;2023-03-01T16:05:20;8.60;99.90
14682;DHT22;7429;52.498;13.480;2023-03-01T16:08:25;8.60;99.90
14682;DHT22;7429;52.498;13.480;2023-03-01T16:11:28;8.60;99.90
14682;DHT22;7429;52.498;13.480;2023-03-01T16:14:33;8.40;99.90
14682;DHT22;7429;52.498;13.480;2023-03-01T16:17:35;8.30;99.90
14682;DHT22;7429;52.498;13.480;2023-03-01T16:20:40;8.30;99.90
14682;DHT22;7429;52.498;13.480;2023-03-01T16:23:43;8.20;99.90
14682;DHT22;7429;52.498;13.480;2023-03-01T16:26:47;8.20;99.90
14682;DHT22;7429;52.498;13.480;2023-03-01T16:29:50;8.10;99.90
14682;DHT22;7429;52.498;13.480;2023-03-01T16:32:53;8.10;99.90
14682;DHT22;7429;52.498;13.480;2023-03-01T16:35:58;8.00;99.90
14682;DHT22;7429;52.498;13.480;2023-03-01T16:39:04;7.90;99.90
14682;DHT22;7429;52.498;13.480;2023-03-01T16:42:08;7.80;99.90
14682;DHT22;7429;52.498;13.480;2023-03-01T16:45:12;7.80;99.90
14682;DHT22;7429;52.498;13.480;2023-03-01T16:48:25;7.80;99.90
14682;DHT22;7429;52.498;13.480;2023-03-01T16:51:30;7.60;99.90
14682;DHT22;7429;52.498;13.480;2023-03-01T16:54:36;7.40;99.90
14682;DHT22;7429;52.498;13.480;2023-03-01T16:57:39;7.30;99.90
14682;DHT22;7429;52.498;13.480;2023-03-01T17:00:43;7.10;99.90
14682;DHT22;7429;52.498;13.480;2023-03-01T17:03:47;7.10;99.90
14682;DHT22;7429;52.498;13.480;2023-03-01T17:06:53;6.90;99.90
14682;DHT22;7429;52.498;13.480;2023-03-01T17:09:56;6.80;99.90
14682;DHT22;7429;52.498;13.480;2023-03-01T17:12:59;6.60;99.90
14682;DHT22;7429;52.498;13.480;2023-03-01T17:16:03;6.50;99.90
14682;DHT22;7429;52.498;13.480;2023-03-01T17:19:07;6.40;99.90
14682;DHT22;7429;52.498;13.480;2023-03-01T17:22:12;6.20;99.90
14682;DHT22;7429;52.498;13.480;2023-03-01T17:25:15;6.10;99.90
14682;DHT22;7429;52.498;13.480;2023-03-01T17:28:19;6.00;99.90
14682;DHT22;7429;52.498;13.480;2023-03-01T17:31:22;5.90;99.90
14682;DHT22;7429;52.498;13.480;2023-03-01T17:34:25;5.90;99.90
14682;DHT22;7429;52.498;13.480;2023-03-01T17:37:31;5.80;99.90
14682;DHT22;7429;52.498;13.480;2023-03-01T17:40:34;5.70;99.90
14682;DHT22;7429;52.498;13.480;2023-03-01T17:43:40;5.60;99.90
14682;DHT22;7429;52.498;13.480;2023-03-01T17:46:43;5.40;99.90
14682;DHT22;7429;52.498;13.480;2023-03-01T17:49:46;5.40;99.90
14682;DHT22;7429;52.498;13.480;2023-03-01T17:52:51;5.30;99.90
14682;DHT22;7429;52.498;13.480;2023-03-01T17:55:59;5.20;99.90
14682;DHT22;7429;52.498;13.480;2023-03-01T17:59:04;5.10;99.90
14682;DHT22;7429;52.498;13.480;2023-03-01T18:02:09;5.00;99.90
14682;DHT22;7429;52.498;13.480;2023-03-01T18:05:13;4.90;99.90
14682;DHT22;7429;52.498;13.480;2023-03-01T18:08:18;4.80;99.90
14682;DHT22;7429;52.498;13.480;2023-03-01T18:11:21;4.80;99.90
14682;DHT22;7429;52.498;13.480;2023-03-01T18:14:26;4.70;99.90
14682;DHT22;7429;52.498;13.480;2023-03-01T18:17:34;4.70;99.90
14682;DHT22;7429;52.498;13.480;2023-03-01T18:20:38;4.60;99.90
14682;DHT22;7429;52.498;13.480;2023-03-01T18:23:42;4.50;99.90
14682;DHT22;7429;52.498;13.480;2023-03-01T18:26:45;4.30;99.90
14682;DHT22;7429;52.498;13.480;2023-03-01T18:29:49;4.30;99.90
14682;DHT22;7429;52.498;13.480;2023-03-01T18:32:52;4.20;99.90
14682;DHT22;7429;52.498;13.480;2023-03-01T18:35:57;4.10;99.90
14682;DHT22;7429;52.498;13.480;2023-03-01T18:39:02;4.00;99.90
14682;DHT22;7429;52.498;13.480;2023-03-01T18:42:06;3.90;99.90
14682;DHT22;7429;52.498;13.480;2023-03-01T18:45:13;3.80;99.90
14682;DHT22;7429;52.498;13.480;2023-03-01T18:48:18;3.80;99.90
14682;DHT22;7429;52.498;13.480;2023-03-01T18:51:24;3.60;99.90
14682;DHT22;7429;52.498;13.480;2023-03-01T18:54:30;3.60;99.90
14682;DHT22;7429;52.498;13.480;2023-03-01T18:57:34;3.50;99.90
14682;DHT22;7429;52.498;13.480;2023-03-01T19:00:37;3.50;99.90
14682;DHT22;7429;52.498;13.480;2023-03-01T19:03:40;3.30;99.90
14682;DHT22;7429;52.498;13.480;2023-03-01T19:06:44;3.30;99.90
14682;DHT22;7429;52.498;13.480;2023-03-01T19:09:49;3.30;99.90
14682;DHT22;7429;52.498;13.480;2023-03-01T19:12:52;3.10;99.90
14682;DHT22;7429;52.498;13.480;2023-03-01T19:16:02;3.10;99.90
14682;DHT22;7429;52.498;13.480;2023-03-01T19:19:06;3.10;99.90
14682;DHT22;7429;52.498;13.480;2023-03-01T19:22:10;3.10;99.90
14682;DHT22;7429;52.498;13.480;2023-03-01T19:25:15;3.00;99.90
14682;DHT22;7429;52.498;13.480;2023-03-01T19:28:18;3.00;99.90
14682;DHT22;7429;52.498;13.480;2023-03-01T19:31:24;3.00;99.90
14682;DHT22;7429;52.498;13.480;2023-03-01T19:34:29;2.90;99.90
14682;DHT22;7429;52.498;13.480;2023-03-01T19:37:32;2.90;99.90
14682;DHT22;7429;52.498;13.480;2023-03-01T19:40:37;2.80;99.90
14682;DHT22;7429;52.498;13.480;2023-03-01T19:43:41;2.80;99.90
14682;DHT22;7429;52.498;13.480;2023-03-01T19:46:44;2.70;99.90
14682;DHT22;7429;52.498;13.480;2023-03-01T19:49:48;2.60;99.90
14682;DHT22;7429;52.498;13.480;2023-03-01T19:52:51;2.50;99.90
14682;DHT22;7429;52.498;13.480;2023-03-01T19:56:00;2.50;99.90